createdAt,value
2022-09-05T00:01:27.508Z,100483.06
2022-09-05T00:04:25.415Z,100472.22
2022-09-05T00:07:57.777Z,100469.19
2022-09-05T00:10:44.832Z,100460.19
2022-09-05T00:14:01.587Z,100480.78
2022-09-05T00:17:02.871Z,100465.47
2022-09-05T00:24:19.457Z,100468.34
2022-09-05T00:24:32.758Z,100456.25
2022-09-05T00:26:30.345Z,100473.41
2022-09-05T00:31:07.325Z,100473.88
2022-09-05T00:32:47.017Z,100472.00
2022-09-05T00:35:45.951Z,100423.13
2022-09-05T00:38:37.304Z,100468.13
2022-09-05T00:41:27.490Z,100456.00
2022-09-05T00:44:18.067Z,100468.03
2022-09-05T00:47:13.651Z,100458.50
2022-09-05T00:50:04.787Z,100462.22
2022-09-05T00:53:06.900Z,100471.69
2022-09-05T00:56:04.466Z,100464.97
2022-09-05T00:59:03.227Z,100442.03
2022-09-05T01:01:55.013Z,100457.47
2022-09-05T01:04:50.227Z,100461.44
2022-09-05T01:07:49.492Z,100452.03
2022-09-05T01:10:42.850Z,100450.06
2022-09-05T01:13:37.203Z,100431.09
2022-09-05T01:16:30.831Z,100449.09
2022-09-05T01:19:26.825Z,100444.28
2022-09-05T01:22:34.823Z,100447.69
2022-09-05T01:25:34.879Z,100423.88
2022-09-05T01:29:16.328Z,100441.91
2022-09-05T01:31:43.332Z,100438.66
2022-09-05T01:34:38.326Z,100442.38
2022-09-05T01:37:34.323Z,100441.69
2022-09-05T01:40:28.775Z,100446.06
2022-09-05T01:43:23.780Z,100441.81
2022-09-05T01:46:23.737Z,100449.00
2022-09-05T01:49:25.016Z,100445.47
2022-09-05T01:52:26.177Z,100448.63
2022-09-05T01:55:23.897Z,100445.78
2022-09-05T01:58:17.375Z,100443.81
2022-09-05T02:01:32.042Z,100441.13
2022-09-05T02:04:43.600Z,100438.66
2022-09-05T02:07:45.002Z,100433.78
2022-09-05T02:11:08.990Z,100434.88
2022-09-05T02:14:00.536Z,100439.69
2022-09-05T02:16:49.869Z,100435.09
2022-09-05T02:19:44.336Z,100427.34
2022-09-05T02:22:42.969Z,100447.09
2022-09-05T02:26:01.509Z,100449.56
2022-09-05T02:28:54.152Z,100441.44
2022-09-05T02:31:46.486Z,100448.63
2022-09-05T02:34:41.395Z,100447.19
2022-09-05T02:40:53.475Z,100450.38
2022-09-05T02:45:08.931Z,100443.88
2022-09-05T02:45:20.202Z,100453.88
2022-09-05T02:47:22.370Z,100449.63
2022-09-05T02:55:49.363Z,100438.06
2022-09-05T02:57:32.670Z,100444.53
2022-09-05T02:57:34.883Z,100446.00
2022-09-05T03:00:17.991Z,100442.81
2022-09-05T03:03:16.545Z,100448.00
2022-09-05T03:06:13.726Z,100439.97
2022-09-05T03:09:18.992Z,100451.91
2022-09-05T03:12:51.878Z,100452.50
2022-09-05T03:16:13.764Z,100439.91
2022-09-05T03:19:39.676Z,100431.31
2022-09-05T03:23:10.881Z,100436.06
2022-09-05T03:26:27.236Z,100434.28
2022-09-05T03:29:58.514Z,100435.44
2022-09-05T03:33:23.825Z,100427.47
2022-09-05T03:36:35.218Z,100436.75
2022-09-05T03:39:47.697Z,100420.28
2022-09-05T03:43:00.170Z,100411.81
2022-09-05T03:46:05.051Z,100435.28
2022-09-05T03:51:06.547Z,100441.81
2022-09-05T03:57:13.295Z,100421.44
2022-09-05T03:57:27.200Z,100435.13
2022-09-05T03:59:34.621Z,100442.78
2022-09-05T04:05:08.919Z,100436.75
2022-09-05T04:08:20.391Z,100434.16
2022-09-05T04:08:50.308Z,100435.81
2022-09-05T04:11:41.030Z,100432.03
2022-09-05T04:14:41.917Z,100432.03
2022-09-05T04:17:35.419Z,100439.00
2022-09-05T04:20:31.179Z,100431.50
2022-09-05T04:23:29.194Z,100436.81
2022-09-05T04:26:36.082Z,100442.97
2022-09-05T04:29:28.998Z,100444.94
2022-09-05T04:32:27.378Z,100450.19
2022-09-05T04:35:24.869Z,100426.41
2022-09-05T04:38:14.965Z,100445.22
2022-09-05T04:41:05.075Z,100457.22
2022-09-05T04:43:57.319Z,100439.97
2022-09-05T04:46:49.161Z,100449.44
2022-09-05T04:49:42.049Z,100455.38
2022-09-05T04:52:54.943Z,100450.56
2022-09-05T04:55:50.484Z,100455.53
2022-09-05T04:59:17.413Z,100457.22
2022-09-05T05:06:14.076Z,100466.47
2022-09-05T05:06:19.741Z,100465.50
2022-09-05T05:08:28.803Z,100474.34
2022-09-05T05:17:58.767Z,100476.97
2022-09-05T05:18:15.330Z,100472.81
2022-09-05T05:18:49.184Z,100484.81
2022-09-05T05:21:31.344Z,100476.47
2022-09-05T05:24:23.426Z,100469.78
2022-09-05T05:27:19.682Z,100469.63
2022-09-05T05:30:10.399Z,100478.91
2022-09-05T05:33:00.378Z,100496.41
2022-09-05T05:35:49.691Z,100493.53
2022-09-05T05:38:46.361Z,100508.38
2022-09-05T05:41:41.320Z,100499.34
2022-09-05T05:44:31.580Z,100512.72
2022-09-05T05:47:31.230Z,100516.66
2022-09-05T05:50:33.143Z,100504.81
2022-09-05T05:53:42.283Z,100502.81
2022-09-05T05:56:57.010Z,100528.84
2022-09-05T06:00:02.567Z,100528.25
2022-09-05T06:03:27.254Z,100531.06
2022-09-05T06:06:24.908Z,100526.94
2022-09-05T06:14:52.969Z,100520.78
2022-09-05T06:14:57.361Z,100541.81
2022-09-05T06:16:59.071Z,100527.97
2022-09-05T06:22:05.546Z,100534.63
2022-09-05T06:24:27.236Z,100537.69
2022-09-05T06:27:33.099Z,100536.72
2022-09-05T06:30:25.256Z,100522.53
2022-09-05T06:33:22.885Z,100542.28
2022-09-05T06:36:23.368Z,100535.28
2022-09-05T06:39:15.247Z,100549.13
2022-09-05T06:42:42.194Z,100539.75
2022-09-05T06:45:47.699Z,100557.88
2022-09-05T06:49:30.603Z,100267.84
2022-09-05T06:52:29.354Z,100547.88
2022-09-05T06:55:45.213Z,100551.69
2022-09-05T06:59:16.169Z,100551.69
2022-09-05T07:02:14.839Z,100557.38
2022-09-05T07:05:37.070Z,100553.81
2022-09-05T07:08:35.441Z,100561.72
2022-09-05T07:11:27.385Z,100561.47
2022-09-05T07:14:22.196Z,100567.50
2022-09-05T07:17:14.599Z,100558.91
2022-09-05T07:20:05.489Z,100559.59
2022-09-05T07:22:57.426Z,100552.81
2022-09-05T07:26:06.085Z,100567.06
2022-09-05T07:28:57.866Z,100560.53
2022-09-05T07:31:51.709Z,100567.47
2022-09-05T07:34:41.802Z,100576.56
2022-09-05T07:37:35.836Z,100569.56
2022-09-05T07:40:26.795Z,100578.00
2022-09-05T07:43:22.638Z,100576.97
2022-09-05T07:46:13.787Z,100577.59
2022-09-05T07:49:05.530Z,100590.47
2022-09-05T07:56:50.806Z,100581.66
2022-09-05T07:57:03.982Z,100596.50
2022-09-05T07:58:24.500Z,100585.41
2022-09-05T08:01:14.496Z,100588.56
2022-09-05T08:04:05.606Z,100596.56
2022-09-05T08:07:46.094Z,100593.53
2022-09-05T08:10:10.711Z,100570.94
2022-09-05T08:13:23.639Z,100585.34
2022-09-05T08:16:14.931Z,100594.31
2022-09-05T08:19:12.737Z,100584.91
2022-09-05T08:22:04.426Z,100589.06
2022-09-05T08:25:03.144Z,100599.78
2022-09-05T08:28:02.855Z,100597.25
2022-09-05T08:30:55.935Z,100584.28
2022-09-05T08:33:45.784Z,100597.13
2022-09-05T08:36:37.856Z,100605.06
2022-09-05T08:39:29.491Z,100590.56
2022-09-05T08:42:28.202Z,100597.41
2022-09-05T08:46:42.970Z,100593.81
2022-09-05T08:48:39.958Z,100595.06
2022-09-05T08:51:35.033Z,100607.91
2022-09-05T08:54:36.409Z,100601.50
2022-09-05T08:57:51.590Z,100598.19
2022-09-05T09:00:50.445Z,100598.63
2022-09-05T09:04:00.499Z,100609.69
2022-09-05T09:07:47.285Z,100601.78
2022-09-05T09:10:29.818Z,100582.38
2022-09-05T09:13:34.655Z,100600.22
2022-09-05T09:16:30.535Z,100603.94
2022-09-05T09:19:29.443Z,100612.94
2022-09-05T09:22:25.093Z,100604.94
2022-09-05T09:25:18.432Z,100604.25
2022-09-05T09:28:49.621Z,100544.97
2022-09-05T09:31:57.947Z,100593.41
2022-09-05T09:34:54.013Z,100597.53
2022-09-05T09:38:08.498Z,100598.03
2022-09-05T09:41:36.669Z,100599.75
2022-09-05T09:45:21.659Z,100602.22
2022-09-05T09:48:45.737Z,100597.34
2022-09-05T09:51:54.874Z,100596.09
2022-09-05T09:55:39.187Z,100578.63
2022-09-05T09:58:40.889Z,100576.34
2022-09-05T10:01:37.282Z,100578.34
2022-09-05T10:10:34.262Z,100576.53
2022-09-05T10:10:46.650Z,100572.06
2022-09-05T10:12:32.221Z,100563.59
2022-09-05T10:15:31.751Z,100552.47
2022-09-05T10:18:36.207Z,100553.41
2022-09-05T10:21:40.909Z,100528.38
2022-09-05T10:25:01.833Z,100539.91
2022-09-05T10:28:09.011Z,100551.31
2022-09-05T10:32:20.713Z,100546.72
2022-09-05T10:35:14.035Z,100543.16
2022-09-05T10:37:37.005Z,100522.59
2022-09-05T10:40:28.956Z,100536.22
2022-09-05T10:43:23.140Z,100530.56
2022-09-05T10:46:48.915Z,100529.53
2022-09-05T10:49:36.242Z,100517.97
2022-09-05T10:52:33.184Z,100522.66
2022-09-05T10:55:26.086Z,100390.38
2022-09-05T10:58:23.487Z,100512.47
2022-09-05T11:02:26.703Z,100495.34
2022-09-05T11:04:50.524Z,100514.31
2022-09-05T11:07:44.472Z,100511.25
2022-09-05T11:10:37.245Z,100503.50
2022-09-05T11:13:43.250Z,100501.50
2022-09-05T11:16:39.165Z,100511.59
2022-09-05T11:19:32.484Z,100508.66
2022-09-05T11:22:24.741Z,100496.47
2022-09-05T11:25:18.229Z,100488.19
2022-09-05T11:28:15.230Z,100500.09
2022-09-05T11:31:10.251Z,100498.28
2022-09-05T11:39:56.164Z,100500.75
2022-09-05T11:40:04.817Z,100502.56
2022-09-05T11:41:34.807Z,100489.66
2022-09-05T11:44:30.429Z,100489.69
2022-09-05T11:47:47.543Z,100463.31
2022-09-05T11:51:35.619Z,100478.28
2022-09-05T11:54:57.620Z,100477.78
2022-09-05T11:57:57.094Z,100478.13
2022-09-05T12:00:48.862Z,100474.53
2022-09-05T12:04:12.937Z,100465.13
2022-09-05T12:07:31.935Z,100461.72
2022-09-05T12:10:46.074Z,100460.22
2022-09-05T12:13:46.252Z,100439.19
2022-09-05T12:16:47.972Z,100451.44
2022-09-05T12:19:41.916Z,100445.06
2022-09-05T12:22:34.628Z,100441.78
2022-09-05T12:27:43.214Z,100445.34
2022-09-05T12:36:11.512Z,100428.91
2022-09-05T12:40:53.950Z,100421.97
2022-09-05T12:41:42.040Z,100435.06
2022-09-05T12:42:10.986Z,100431.34
2022-09-05T12:42:13.739Z,100422.72
2022-09-05T12:45:03.016Z,100415.16
2022-09-05T12:47:59.840Z,100422.13
2022-09-05T12:50:56.061Z,100417.19
2022-09-05T12:53:46.072Z,100411.50
2022-09-05T13:02:22.255Z,100409.16
2022-09-05T13:03:01.752Z,100395.25
2022-09-05T13:03:29.254Z,100397.66
2022-09-05T13:06:25.582Z,100394.53
2022-09-05T13:09:21.180Z,100395.81
2022-09-05T13:15:02.310Z,100392.44
2022-09-05T13:15:28.233Z,100389.66
2022-09-05T13:18:18.752Z,100393.16
2022-09-05T13:21:13.172Z,100390.34
2022-09-05T13:24:10.002Z,100380.06
2022-09-05T13:27:05.636Z,100373.19
2022-09-05T13:30:57.717Z,100375.56
2022-09-05T13:38:00.006Z,100374.34
2022-09-05T13:38:10.023Z,100368.53
2022-09-05T13:39:38.571Z,100374.16
2022-09-05T13:42:30.871Z,100369.06
2022-09-05T13:45:19.731Z,100364.13
2022-09-05T13:48:28.335Z,100364.41
2022-09-05T13:51:37.199Z,100363.91
2022-09-05T13:54:37.652Z,100360.22
2022-09-05T13:57:33.311Z,100361.81
2022-09-05T14:00:51.721Z,100344.34
2022-09-05T14:05:05.439Z,100339.78
2022-09-05T14:08:18.022Z,100345.81
2022-09-05T14:11:44.843Z,100341.53
2022-09-05T14:17:55.871Z,100333.66
2022-09-05T14:21:13.934Z,100332.66
2022-09-05T14:24:07.670Z,100329.50
2022-09-05T14:27:08.814Z,100333.44
2022-09-05T14:29:57.824Z,100324.47
2022-09-05T14:37:42.985Z,100332.00
2022-09-05T14:37:55.238Z,100324.50
2022-09-05T14:40:00.784Z,100323.50
2022-09-05T14:43:03.992Z,100322.84
2022-09-05T14:46:23.806Z,100312.38
2022-09-05T14:49:36.371Z,100314.53
2022-09-05T14:52:27.036Z,100308.34
2022-09-05T14:55:20.736Z,100301.53
2022-09-05T15:02:45.187Z,100307.91
2022-09-05T15:02:46.198Z,100306.47
2022-09-05T15:04:41.050Z,100307.75
2022-09-05T15:07:35.288Z,100264.41
2022-09-05T15:12:15.296Z,100298.63
2022-09-05T15:13:52.954Z,100286.94
2022-09-05T15:16:45.722Z,100294.28
2022-09-05T15:20:05.742Z,100247.47
2022-09-05T15:22:56.225Z,100281.91
2022-09-05T15:25:50.567Z,100270.91
2022-09-05T15:28:42.643Z,100276.66
2022-09-05T15:31:31.595Z,100269.03
2022-09-05T15:34:24.860Z,100267.56
2022-09-05T15:37:28.398Z,100264.47
2022-09-05T15:40:22.941Z,100262.19
2022-09-05T15:43:17.550Z,100178.22
2022-09-05T15:46:06.928Z,100229.06
2022-09-05T15:48:57.713Z,100215.59
2022-09-05T15:51:49.575Z,100247.59
2022-09-05T15:54:40.249Z,100249.06
2022-09-05T15:57:30.555Z,100235.41
2022-09-05T16:00:42.337Z,100239.47
2022-09-05T16:06:41.395Z,100241.09
2022-09-05T16:10:41.438Z,100240.31
2022-09-05T16:10:49.483Z,100215.44
2022-09-05T16:13:13.432Z,100234.50
2022-09-05T16:23:13.955Z,100193.88
2022-09-05T16:23:19.951Z,100223.25
2022-09-05T16:23:24.619Z,100233.66
2022-09-05T16:25:40.959Z,100227.16
2022-09-05T16:28:31.607Z,100221.31
2022-09-05T16:31:25.955Z,100220.81
2022-09-05T16:34:21.745Z,100223.50
2022-09-05T16:37:13.619Z,100220.25
2022-09-05T16:40:08.480Z,100225.44
2022-09-05T16:43:01.039Z,100224.13
2022-09-05T16:45:55.412Z,100218.91
2022-09-05T16:48:50.103Z,100218.38
2022-09-05T16:51:45.870Z,100211.47
2022-09-05T16:54:44.717Z,100211.66
2022-09-05T16:57:35.629Z,100204.31
2022-09-05T17:00:24.255Z,100206.56
2022-09-05T17:03:28.725Z,100208.66
2022-09-05T17:06:26.204Z,100199.34
2022-09-05T17:09:21.771Z,100201.78
2022-09-05T17:12:13.379Z,100199.81
2022-09-05T17:15:04.054Z,100195.69
2022-09-05T17:18:19.152Z,100145.19
2022-09-05T17:21:08.390Z,100191.16
2022-09-05T17:29:17.918Z,100111.69
2022-09-05T17:29:30.533Z,100188.56
2022-09-05T17:34:33.946Z,100177.34
2022-09-05T17:37:59.458Z,100184.19
2022-09-05T17:41:29.379Z,100181.31
2022-09-05T17:44:21.696Z,100172.69
2022-09-05T17:47:14.707Z,100182.75
2022-09-05T17:50:17.431Z,100179.09
2022-09-05T17:53:25.214Z,100175.50
2022-09-05T17:56:34.007Z,100172.75
2022-09-05T17:59:27.030Z,100187.44
2022-09-05T18:02:33.153Z,100162.75
2022-09-05T18:06:04.731Z,100196.13
2022-09-05T18:08:53.343Z,100185.97
2022-09-05T18:11:44.883Z,100178.03
2022-09-05T18:14:46.807Z,100178.34
2022-09-05T18:17:59.505Z,100190.50
2022-09-05T18:24:12.057Z,100183.88
2022-09-05T18:27:15.074Z,100183.78
2022-09-05T18:30:27.369Z,100193.88
2022-09-05T18:34:03.742Z,100191.91
2022-09-05T18:36:35.411Z,100199.94
2022-09-05T18:39:46.759Z,100194.84
2022-09-05T18:42:38.924Z,100200.94
2022-09-05T18:45:28.603Z,100204.81
2022-09-05T18:48:29.715Z,100201.13
2022-09-05T18:51:22.059Z,100209.63
2022-09-05T18:54:20.371Z,100194.47
2022-09-05T18:57:26.765Z,100212.13
2022-09-05T19:00:26.013Z,100217.16
2022-09-05T19:03:27.819Z,100212.06
2022-09-05T19:06:35.127Z,100220.31
2022-09-05T19:09:29.169Z,100220.69
2022-09-05T19:12:33.277Z,100220.16
2022-09-05T19:15:29.899Z,100209.78
2022-09-05T19:18:27.187Z,100207.31
2022-09-05T19:21:20.330Z,100207.94
2022-09-05T19:24:11.453Z,100209.88
2022-09-05T19:28:23.380Z,100214.00
2022-09-05T19:37:03.294Z,100204.72
2022-09-05T19:37:04.607Z,100201.44
2022-09-05T19:37:07.200Z,100199.78
2022-09-05T19:43:28.361Z,100200.91
2022-09-05T19:47:42.241Z,100202.53
2022-09-05T19:47:42.804Z,100183.72
2022-09-05T19:49:23.152Z,100179.38
2022-09-05T19:52:16.737Z,100196.53
2022-09-05T19:55:20.525Z,100188.38
2022-09-05T19:58:18.837Z,100158.06
2022-09-05T20:01:20.120Z,100187.56
2022-09-05T20:04:09.400Z,100183.72
2022-09-05T20:06:58.600Z,100172.03
2022-09-05T20:09:48.968Z,100177.72
2022-09-05T20:12:39.148Z,100172.28
2022-09-05T20:15:34.654Z,100156.47
2022-09-05T20:18:28.553Z,100150.47
2022-09-05T20:21:23.289Z,100170.94
2022-09-05T20:24:12.200Z,100164.13
2022-09-05T20:27:02.093Z,100166.84
2022-09-05T20:29:55.980Z,100006.16
2022-09-05T20:32:49.495Z,100127.78
2022-09-05T20:42:03.773Z,100168.19
2022-09-05T20:43:23.804Z,100167.13
2022-09-05T20:43:35.594Z,100169.00
2022-09-05T20:45:11.562Z,100171.47
2022-09-05T20:54:13.325Z,100170.91
2022-09-05T20:54:18.864Z,100154.00
2022-09-05T20:54:35.086Z,100169.28
2022-09-05T20:57:30.765Z,100178.00
2022-09-05T21:00:22.008Z,100172.56
2022-09-05T21:03:15.839Z,100173.09
2022-09-05T21:06:23.453Z,100179.09
2022-09-05T21:09:25.410Z,100171.44
2022-09-05T21:12:14.994Z,100181.03
2022-09-05T21:15:52.050Z,100184.03
2022-09-05T21:18:33.653Z,100172.00
2022-09-05T21:21:28.601Z,100167.63
2022-09-05T21:24:23.733Z,100162.19
2022-09-05T21:27:17.290Z,100163.00
2022-09-05T21:30:21.825Z,100164.34
2022-09-05T21:33:18.731Z,100163.25
2022-09-05T21:36:07.744Z,100148.22
2022-09-05T21:38:57.770Z,100158.06
2022-09-05T21:41:48.898Z,100156.66
2022-09-05T21:47:46.313Z,100144.44
2022-09-05T21:47:53.990Z,100166.75
2022-09-05T21:50:46.128Z,100168.38
2022-09-05T21:59:15.200Z,100150.41
2022-09-05T21:59:25.702Z,100158.31
2022-09-05T22:00:10.635Z,100159.41
2022-09-05T22:03:00.270Z,100155.59
2022-09-05T22:05:52.884Z,100167.00
2022-09-05T22:09:01.220Z,100168.38
2022-09-05T22:11:54.479Z,100161.00
2022-09-05T22:14:43.403Z,100146.56
2022-09-05T22:17:32.454Z,100148.44
2022-09-05T22:20:22.731Z,100113.53
2022-09-05T22:23:12.125Z,100141.88
2022-09-05T22:26:01.400Z,100128.25
2022-09-05T22:28:51.399Z,100152.78
2022-09-05T22:31:40.209Z,100037.28
2022-09-05T22:34:29.025Z,100150.53
2022-09-05T22:37:17.893Z,100004.75
2022-09-05T22:40:09.632Z,100138.53
2022-09-05T22:42:59.326Z,100087.22
2022-09-05T22:45:50.055Z,100128.13
2022-09-05T22:48:38.699Z,100127.88
2022-09-05T22:51:27.233Z,100135.00
2022-09-05T22:54:15.791Z,100128.19
2022-09-05T22:57:05.273Z,100127.34
2022-09-05T22:59:54.163Z,100114.16
2022-09-05T23:02:45.392Z,100120.25
2022-09-05T23:05:36.564Z,100118.06
2022-09-05T23:08:25.183Z,100119.13
2022-09-05T23:11:15.748Z,100117.41
2022-09-05T23:14:04.296Z,100122.34
2022-09-05T23:16:52.817Z,100113.88
2022-09-05T23:19:42.720Z,100105.09
2022-09-05T23:22:31.231Z,100125.22
2022-09-05T23:25:21.491Z,100115.91
2022-09-05T23:28:10.768Z,100111.53
2022-09-05T23:31:00.287Z,100131.41
2022-09-05T23:33:49.188Z,100120.22
2022-09-05T23:36:39.064Z,100113.00
2022-09-05T23:39:27.785Z,100096.28
2022-09-05T23:42:16.641Z,100107.19
2022-09-05T23:45:05.771Z,100108.53
2022-09-05T23:47:54.536Z,100104.94
2022-09-05T23:50:43.079Z,100099.75
2022-09-05T23:53:32.966Z,100099.41
2022-09-05T23:56:21.497Z,100090.50
2022-09-05T23:59:11.614Z,100093.66
